Time;durP1;ratioP1;P1;durP2;ratioP2;P2;SDS_P1;SDS_P2;PMS_P1;PMS_P2;Temp;Humidity;BMP_temperature;BMP_pressure;BME280_temperature;BME280_humidity;BME280_pressure;Samples;Min_cycle;Max_cycle;Signal;HPM_P1;HPM_P2
2022/01/07 00:02:16;;;;;;;;;;;;;;;18.48;55.53;101347.84;5034080;28;5239;-66
2022/01/07 00:04:42;;;;;;;;;;;;;;;18.51;54.63;101347.34;5032955;28;4195;-66
2022/01/07 00:07:09;;;;;;;;;;;;;;;18.51;54.77;101346.59;5033626;28;4240;-66
2022/01/07 00:09:36;;;;;;;;;;;;;;;18.55;54.94;101343.97;5034447;28;4596;-65
2022/01/07 00:12:03;;;;;;;;;;;;;;;18.54;54.49;101333.88;5036852;28;4271;-65
2022/01/07 00:14:31;;;;;;;;;;;;;;;18.53;54.60;101346.72;5034159;28;4173;-66
2022/01/07 00:16:57;;;;;;;;;;;;;;;18.52;54.95;101343.09;5034581;28;4247;-65
2022/01/07 00:19:24;;;;;;;;;;;;;;;18.51;55.23;101340.84;5034080;28;5194;-65
2022/01/07 00:21:50;;;;;;;;;;;;;;;18.49;54.75;101338.63;5034682;28;4161;-66
2022/01/07 00:24:16;;;;;;;;;;;;;;;18.51;54.38;101337.97;5035204;28;4206;-66
2022/01/07 00:26:43;;;;;;;;;;;;;;;18.60;53.75;101334.28;5034030;28;4326;-66
2022/01/07 00:29:09;;;;;;;;;;;;;;;18.53;54.39;101335.25;5023569;28;5265;-65
2022/01/07 00:31:35;;;;;;;;;;;;;;;18.53;53.85;101343.84;5013633;28;4193;-66
2022/01/07 00:34:02;;;;;;;;;;;;;;;18.48;54.79;101339.25;5035712;28;4208;-66
2022/01/07 00:36:28;;;;;;;;;;;;;;;18.59;54.07;101342.09;5034406;28;5451;-66
2022/01/07 00:38:54;;;;;;;;;;;;;;;18.41;55.05;101336.00;5035044;28;6380;-66
2022/01/07 00:41:21;;;;;;;;;;;;;;;18.43;54.81;101341.84;5035100;28;4234;-66
2022/01/07 00:43:50;;;;;;;;;;;;;;;18.45;55.29;101337.63;5035460;28;4198;-66
2022/01/07 00:46:19;;;;;;;;;;;;;;;18.49;54.80;101337.88;5034392;28;4378;-66
2022/01/07 00:48:45;;;;;;;;;;;;;;;18.51;54.79;101338.75;5034155;28;4666;-66
2022/01/07 00:51:12;;;;;;;;;;;;;;;18.54;54.73;101326.03;5035206;28;4496;-66
2022/01/07 00:53:38;;;;;;;;;;;;;;;18.51;54.83;101323.66;5037619;28;4142;-66
2022/01/07 00:56:04;;;;;;;;;;;;;;;18.60;53.78;101319.94;5038059;28;4186;-66
2022/01/07 00:58:31;;;;;;;;;;;;;;;18.54;53.91;101322.41;5037246;28;6859;-65
2022/01/07 01:00:57;;;;;;;;;;;;;;;18.59;53.25;101318.41;5037913;28;4484;-66
2022/01/07 01:03:23;;;;;;;;;;;;;;;18.54;54.59;101313.81;5035670;28;4180;-66
2022/01/07 01:05:50;;;;;;;;;;;;;;;18.49;54.49;101309.94;5037617;28;5343;-66
2022/01/07 01:08:16;;;;;;;;;;;;;;;18.51;54.50;101312.19;5036482;28;5392;-65
2022/01/07 01:10:43;;;;;;;;;;;;;;;18.49;54.65;101312.06;5038176;28;5287;-66
2022/01/07 01:13:09;;;;;;;;;;;;;;;18.69;53.32;101304.69;5037681;28;4087;-66
2022/01/07 01:15:35;;;;;;;;;;;;;;;18.49;54.91;101303.47;5038771;28;4018;-66
2022/01/07 01:18:02;;;;;;;;;;;;;;;18.57;53.93;101298.22;5037071;28;4979;-66
2022/01/07 01:20:28;;;;;;;;;;;;;;;18.52;54.16;101311.56;5034644;28;4246;-65
2022/01/07 01:22:55;;;;;;;;;;;;;;;18.53;54.69;101292.22;5031250;28;4086;-66
2022/01/07 01:25:21;;;;;;;;;;;;;;;18.59;53.30;101298.34;5038211;28;4249;-66
2022/01/07 01:27:47;;;;;;;;;;;;;;;18.63;54.09;101287.13;5038111;28;5672;-66
2022/01/07 01:30:17;;;;;;;;;;;;;;;18.55;54.23;101295.22;5036523;28;4088;-66
2022/01/07 01:32:45;;;;;;;;;;;;;;;18.49;54.54;101274.78;5037927;28;4201;-65
2022/01/07 01:35:11;;;;;;;;;;;;;;;18.58;54.14;101276.78;5038597;28;4150;-66
2022/01/07 01:37:37;;;;;;;;;;;;;;;18.57;53.58;101276.00;5037968;28;5254;-65
2022/01/07 01:40:04;;;;;;;;;;;;;;;18.47;54.88;101277.53;5037261;28;5214;-65
2022/01/07 01:42:31;;;;;;;;;;;;;;;18.60;54.18;101279.78;5035693;28;4163;-65
2022/01/07 01:44:57;;;;;;;;;;;;;;;18.55;55.11;101272.28;5038002;28;4241;-66
2022/01/07 01:47:23;;;;;;;;;;;;;;;18.49;55.03;101274.78;5037578;28;4165;-65
2022/01/07 01:49:50;;;;;;;;;;;;;;;18.51;54.87;101274.91;5036450;28;5066;-66
2022/01/07 01:52:16;;;;;;;;;;;;;;;18.54;54.56;101270.78;5037444;28;4281;-66
2022/01/07 01:54:45;;;;;;;;;;;;;;;18.55;54.52;101255.06;5035575;28;4169;-65
2022/01/07 01:57:13;;;;;;;;;;;;;;;18.57;53.86;101266.66;5033934;28;4418;-66
2022/01/07 01:59:40;;;;;;;;;;;;;;;18.51;55.31;101260.56;5036081;28;5297;-66
2022/01/07 02:02:07;;;;;;;;;;;;;;;18.59;54.22;101264.66;5035086;28;4085;-65
2022/01/07 02:04:34;;;;;;;;;;;;;;;18.59;55.10;101250.31;5036061;28;4185;-65
2022/01/07 02:07:00;;;;;;;;;;;;;;;18.50;55.00;101251.22;5037498;28;4020;-66
2022/01/07 02:09:34;;;;;;;;;;;;;;;18.38;55.35;101253.34;5036654;28;4244;-65
2022/01/07 02:12:02;;;;;;;;;;;;;;;18.33;55.28;101251.63;5021146;28;4224;-66
2022/01/07 02:14:29;;;;;;;;;;;;;;;18.26;55.77;101253.34;5036792;28;4196;-65
2022/01/07 02:16:55;;;;;;;;;;;;;;;18.39;54.81;101255.59;5036783;28;4352;-65
2022/01/07 02:19:21;;;;;;;;;;;;;;;18.24;55.71;101247.50;5015252;28;4240;-66
2022/01/07 02:21:48;;;;;;;;;;;;;;;18.29;55.49;101242.75;5032190;28;4330;-66
2022/01/07 02:24:14;;;;;;;;;;;;;;;18.26;55.49;101236.16;5035755;28;4184;-66
2022/01/07 02:26:40;;;;;;;;;;;;;;;18.33;55.30;101229.41;5034399;28;4217;-65
2022/01/07 02:29:07;;;;;;;;;;;;;;;18.33;55.97;101229.41;5032091;28;5376;-65
2022/01/07 02:31:33;;;;;;;;;;;;;;;18.38;55.42;101225.41;5032778;28;4259;-65
2022/01/07 02:34:00;;;;;;;;;;;;;;;18.34;55.11;101230.16;5035554;28;4244;-65
2022/01/07 02:36:26;;;;;;;;;;;;;;;18.26;55.51;101218.97;5036036;28;4567;-65
2022/01/07 02:38:53;;;;;;;;;;;;;;;18.22;55.53;101218.72;5037099;28;4163;-65
2022/01/07 02:41:19;;;;;;;;;;;;;;;18.27;55.47;101222.56;5035305;28;4176;-66
2022/01/07 02:43:45;;;;;;;;;;;;;;;18.29;56.10;101217.69;5033342;28;3996;-66
2022/01/07 02:46:12;;;;;;;;;;;;;;;18.29;55.45;101211.22;5037345;28;5234;-66
2022/01/07 02:48:38;;;;;;;;;;;;;;;18.31;55.73;101209.22;5035276;28;4155;-65
2022/01/07 02:51:04;;;;;;;;;;;;;;;18.37;54.88;101206.72;5037312;28;4205;-66
2022/01/07 02:53:31;;;;;;;;;;;;;;;18.27;55.84;101211.84;5034843;28;4258;-66
2022/01/07 02:55:57;;;;;;;;;;;;;;;18.58;54.52;101207.94;5036749;28;4280;-65
2022/01/07 02:58:23;;;;;;;;;;;;;;;18.59;53.83;101212.28;5034526;28;4266;-65
2022/01/07 03:00:50;;;;;;;;;;;;;;;18.43;54.27;101207.09;5036252;28;5232;-66
2022/01/07 03:03:16;;;;;;;;;;;;;;;18.35;55.26;101208.72;5034974;28;5185;-66
2022/01/07 03:05:43;;;;;;;;;;;;;;;18.33;55.92;101212.22;5033248;28;4175;-65
2022/01/07 03:08:09;;;;;;;;;;;;;;;18.43;54.25;101203.47;5035817;28;5211;-65
2022/01/07 03:10:36;;;;;;;;;;;;;;;18.28;55.74;101204.75;5036565;28;5515;-65
2022/01/07 03:13:03;;;;;;;;;;;;;;;18.35;54.88;101198.00;5036719;28;5199;-65
2022/01/07 03:15:29;;;;;;;;;;;;;;;18.29;55.29;101194.75;5032223;28;5086;-65
2022/01/07 03:17:56;;;;;;;;;;;;;;;18.32;55.08;101199.25;5035622;28;5349;-65
2022/01/07 03:20:22;;;;;;;;;;;;;;;18.48;55.10;101195.84;5035872;28;4242;-65
2022/01/07 03:22:49;;;;;;;;;;;;;;;18.63;54.14;101181.00;5036521;28;5300;-65
2022/01/07 03:25:15;;;;;;;;;;;;;;;18.54;55.13;101181.88;5037585;28;4184;-65
2022/01/07 03:27:41;;;;;;;;;;;;;;;18.63;53.88;101186.72;5033179;28;4289;-66
2022/01/07 03:30:09;;;;;;;;;;;;;;;18.60;54.06;101182.25;5035994;28;4187;-66
2022/01/07 03:32:35;;;;;;;;;;;;;;;18.55;54.87;101169.78;5036327;28;4174;-66
2022/01/07 03:35:02;;;;;;;;;;;;;;;18.63;54.37;101175.25;5034437;28;5358;-66
2022/01/07 03:37:28;;;;;;;;;;;;;;;18.76;53.33;101170.94;5035364;28;4260;-66
2022/01/07 03:39:55;;;;;;;;;;;;;;;18.60;54.31;101174.38;5034998;28;4171;-66
2022/01/07 03:42:21;;;;;;;;;;;;;;;18.62;54.81;101173.75;5034974;28;4067;-66
2022/01/07 03:44:47;;;;;;;;;;;;;;;18.69;53.71;101172.75;5033505;28;4391;-66
2022/01/07 03:47:14;;;;;;;;;;;;;;;18.61;54.34;101172.25;5031972;28;5107;-66
2022/01/07 03:49:40;;;;;;;;;;;;;;;18.60;54.14;101160.06;5033268;28;4164;-65
2022/01/07 03:52:07;;;;;;;;;;;;;;;18.63;54.58;101160.91;5032822;28;4458;-66
2022/01/07 03:54:33;;;;;;;;;;;;;;;18.58;54.63;101159.19;5035469;28;5214;-66
2022/01/07 03:57:00;;;;;;;;;;;;;;;18.71;53.73;101158.50;5033683;28;4274;-66
2022/01/07 03:59:27;;;;;;;;;;;;;;;18.62;53.83;101159.41;5034786;28;4190;-66
2022/01/07 04:01:54;;;;;;;;;;;;;;;18.65;54.08;101151.69;5035807;28;4287;-65
2022/01/07 04:04:20;;;;;;;;;;;;;;;18.63;54.06;101158.03;5034401;28;4099;-65
2022/01/07 04:06:47;;;;;;;;;;;;;;;18.58;54.32;101153.44;5033318;28;5453;-66
2022/01/07 04:09:13;;;;;;;;;;;;;;;18.71;53.95;101147.03;5033470;28;4174;-66
2022/01/07 04:11:39;;;;;;;;;;;;;;;18.76;52.86;101160.25;5033514;28;4144;-66
2022/01/07 04:14:06;;;;;;;;;;;;;;;18.70;54.00;101139.81;5033546;28;5363;-66
2022/01/07 04:16:32;;;;;;;;;;;;;;;18.72;53.26;101147.78;5032761;28;4374;-66
2022/01/07 04:18:58;;;;;;;;;;;;;;;18.67;53.76;101146.81;5034080;28;4386;-66
2022/01/07 04:21:25;;;;;;;;;;;;;;;18.60;54.64;101136.38;5033639;28;5354;-66
2022/01/07 04:23:51;;;;;;;;;;;;;;;18.71;53.92;101135.53;5033133;28;4076;-66
2022/01/07 04:26:17;;;;;;;;;;;;;;;18.60;53.90;101137.09;5035109;28;5622;-66
2022/01/07 04:28:44;;;;;;;;;;;;;;;18.70;53.56;101136.94;5037790;28;5234;-66
2022/01/07 04:31:10;;;;;;;;;;;;;;;18.67;53.96;101135.34;5036994;28;4225;-65
2022/01/07 04:33:36;;;;;;;;;;;;;;;18.69;53.82;101123.22;5035628;28;5252;-65
2022/01/07 04:36:03;;;;;;;;;;;;;;;18.61;54.47;101109.91;5039940;28;5441;-65
2022/01/07 04:38:29;;;;;;;;;;;;;;;18.60;54.34;101124.88;5036802;28;4629;-65
2022/01/07 04:40:56;;;;;;;;;;;;;;;18.66;54.13;101113.00;5038212;28;5298;-65
2022/01/07 04:43:22;;;;;;;;;;;;;;;18.74;53.77;101111.34;5037880;28;4249;-65
2022/01/07 04:45:48;;;;;;;;;;;;;;;18.67;54.00;101103.78;5040945;28;4254;-65
2022/01/07 04:48:15;;;;;;;;;;;;;;;18.71;53.55;101092.50;5038359;28;5294;-65
2022/01/07 04:50:41;;;;;;;;;;;;;;;18.74;53.70;101105.63;5039117;28;4218;-65
2022/01/07 04:53:07;;;;;;;;;;;;;;;18.63;54.20;101094.94;5039418;28;4230;-65
2022/01/07 04:55:37;;;;;;;;;;;;;;;18.77;53.71;101092.91;5037889;28;5296;-65
2022/01/07 04:58:05;;;;;;;;;;;;;;;18.62;54.36;101093.44;5038909;28;4039;-65
2022/01/07 05:00:31;;;;;;;;;;;;;;;18.66;54.21;101087.19;5037850;28;5151;-65
2022/01/07 05:02:57;;;;;;;;;;;;;;;18.70;53.91;101088.16;5038272;28;4082;-65
2022/01/07 05:05:24;;;;;;;;;;;;;;;18.70;53.96;101087.44;5038531;28;4258;-65
2022/01/07 05:07:50;;;;;;;;;;;;;;;18.75;53.49;101078.41;5038713;28;4256;-65
2022/01/07 05:10:16;;;;;;;;;;;;;;;18.73;54.14;101080.41;5037134;28;4136;-65
2022/01/07 05:12:43;;;;;;;;;;;;;;;18.77;54.29;101080.69;5037598;28;5243;-65
2022/01/07 05:15:10;;;;;;;;;;;;;;;18.76;54.23;101061.94;5037518;28;4199;-65
2022/01/07 05:17:36;;;;;;;;;;;;;;;18.74;53.04;101059.72;5039277;28;5264;-66
2022/01/07 05:20:02;;;;;;;;;;;;;;;18.79;53.70;101054.97;5035736;28;5347;-66
2022/01/07 05:22:29;;;;;;;;;;;;;;;18.67;54.34;101055.03;5035387;28;4145;-65
2022/01/07 05:24:55;;;;;;;;;;;;;;;18.71;54.49;101055.22;5034936;28;4300;-66
2022/01/07 05:27:21;;;;;;;;;;;;;;;18.83;52.71;101061.69;5035768;28;5504;-66
2022/01/07 05:29:48;;;;;;;;;;;;;;;18.82;53.68;101054.44;5036204;28;4060;-66
2022/01/07 05:32:14;;;;;;;;;;;;;;;18.75;54.45;101049.72;5038948;28;5232;-66
2022/01/07 05:34:40;;;;;;;;;;;;;;;18.68;54.38;101042.16;5038472;28;5268;-66
2022/01/07 05:37:09;;;;;;;;;;;;;;;18.82;54.07;101045.84;5037484;28;3990;-66
2022/01/07 05:39:35;;;;;;;;;;;;;;;18.83;53.41;101038.75;5036057;28;4164;-66
2022/01/07 05:42:03;;;;;;;;;;;;;;;18.70;54.09;101027.94;5037530;28;4099;-66
2022/01/07 05:44:29;;;;;;;;;;;;;;;18.90;53.29;101031.22;5036495;28;4191;-66
2022/01/07 05:46:55;;;;;;;;;;;;;;;18.86;52.86;101027.38;5034997;28;4136;-65
2022/01/07 05:49:22;;;;;;;;;;;;;;;18.84;53.47;101016.53;5033900;28;4260;-66
2022/01/07 05:51:48;;;;;;;;;;;;;;;18.84;53.45;101011.53;5032168;28;4382;-66
2022/01/07 05:54:14;;;;;;;;;;;;;;;18.84;53.14;101005.03;5028612;28;4252;-66
2022/01/07 05:56:41;;;;;;;;;;;;;;;18.74;53.92;101002.34;5031785;28;4305;-66
2022/01/07 05:59:07;;;;;;;;;;;;;;;18.77;53.93;101001.09;5035675;28;4253;-67
2022/01/07 06:01:33;;;;;;;;;;;;;;;18.70;54.44;101001.38;5034221;28;4412;-66
2022/01/07 06:04:00;;;;;;;;;;;;;;;18.83;54.09;101003.56;5035521;28;5272;-66
2022/01/07 06:06:27;;;;;;;;;;;;;;;18.76;53.95;100999.59;5035499;28;5266;-68
2022/01/07 06:08:53;;;;;;;;;;;;;;;18.83;53.61;100992.84;5036785;28;4058;-68
2022/01/07 06:11:20;;;;;;;;;;;;;;;18.84;53.65;100991.44;5036129;28;4189;-67
2022/01/07 06:13:46;;;;;;;;;;;;;;;18.93;53.61;100989.03;5038459;28;4202;-68
2022/01/07 06:16:12;;;;;;;;;;;;;;;18.83;53.34;100992.84;5036137;28;4070;-68
2022/01/07 06:18:57;;;;;;;;;;;;;;;18.88;53.63;100984.44;5033133;28;4465;-68
2022/01/07 06:21:23;;;;;;;;;;;;;;;18.86;53.60;100990.06;5036052;28;4923;-68
2022/01/07 06:23:50;;;;;;;;;;;;;;;18.75;55.02;100988.75;5036090;28;4262;-68
2022/01/07 06:26:16;;;;;;;;;;;;;;;18.83;54.02;100989.97;5035858;28;4031;-68
2022/01/07 06:28:43;;;;;;;;;;;;;;;18.78;54.51;100985.38;5032131;28;4035;-69
2022/01/07 06:31:09;;;;;;;;;;;;;;;18.73;54.32;100983.63;5033841;28;4460;-68
2022/01/07 06:33:35;;;;;;;;;;;;;;;19.01;53.82;100989.44;5034773;28;4407;-66
2022/01/07 06:36:02;;;;;;;;;;;;;;;19.37;55.56;100987.78;5031418;28;4091;-63
2022/01/07 06:38:28;;;;;;;;;;;;;;;18.84;54.82;100988.56;5031443;28;4135;-67
2022/01/07 06:40:55;;;;;;;;;;;;;;;18.86;53.67;100990.06;5034448;28;4062;-68
2022/01/07 06:43:21;;;;;;;;;;;;;;;18.87;52.41;100991.56;5035153;28;5416;-68
2022/01/07 06:45:47;;;;;;;;;;;;;;;18.87;53.49;100994.41;5034724;28;4371;-71
2022/01/07 06:48:14;;;;;;;;;;;;;;;18.81;53.30;100989.84;5034432;28;4276;-68
2022/01/07 06:50:41;;;;;;;;;;;;;;;18.59;52.49;100997.94;5036233;28;4238;-64
2022/01/07 06:53:08;;;;;;;;;;;;;;;18.59;53.84;100992.19;5033613;28;5497;-63
2022/01/07 06:55:54;;;;;;;;;;;;;;;18.66;54.48;100989.66;5035367;28;6184;-63
2022/01/07 06:58:20;;;;;;;;;;;;;;;18.39;55.28;100991.81;5035817;28;5265;-63
2022/01/07 07:00:46;;;;;;;;;;;;;;;18.56;55.19;100987.00;5036014;28;4167;-63
2022/01/07 07:03:13;;;;;;;;;;;;;;;18.42;56.44;100999.16;5037839;28;4089;-65
2022/01/07 07:05:39;;;;;;;;;;;;;;;18.38;56.95;100990.31;5034927;28;5268;-64
2022/01/07 07:08:06;;;;;;;;;;;;;;;18.44;56.88;100987.06;5034796;28;4235;-64
2022/01/07 07:10:32;;;;;;;;;;;;;;;18.45;57.01;100984.94;5036693;28;5225;-65
2022/01/07 07:12:58;;;;;;;;;;;;;;;18.45;57.11;100976.31;5037929;28;5589;-65
2022/01/07 07:15:25;;;;;;;;;;;;;;;18.39;55.89;100974.63;5035773;28;4073;-64
2022/01/07 07:17:51;;;;;;;;;;;;;;;18.60;54.92;100965.03;5026203;28;4482;-64
2022/01/07 07:20:18;;;;;;;;;;;;;;;18.69;54.38;100971.19;5032234;28;4213;-64
2022/01/07 07:22:44;;;;;;;;;;;;;;;18.53;55.38;100959.56;5035199;28;4055;-64
2022/01/07 07:25:11;;;;;;;;;;;;;;;18.49;55.41;100954.34;5036079;28;4172;-64
2022/01/07 07:27:37;;;;;;;;;;;;;;;18.42;54.72;100959.00;5033823;28;4202;-65
2022/01/07 07:30:05;;;;;;;;;;;;;;;18.50;54.93;100952.22;5035319;28;4175;-64
2022/01/07 07:32:31;;;;;;;;;;;;;;;18.46;55.16;100949.13;5033750;28;4057;-65
2022/01/07 07:35:04;;;;;;;;;;;;;;;18.34;55.84;100952.81;5035758;28;5473;-64
2022/01/07 07:37:31;;;;;;;;;;;;;;;18.39;55.50;100943.06;5035176;28;5662;-65
2022/01/07 07:39:57;;;;;;;;;;;;;;;18.35;56.14;100951.44;5031985;28;4418;-61
2022/01/07 07:42:23;;;;;;;;;;;;;;;18.47;55.54;100947.78;5035066;28;4226;-64
2022/01/07 07:44:55;;;;;;;;;;;;;;;18.45;55.23;100936.19;5033540;28;4060;-65
2022/01/07 07:47:21;;;;;;;;;;;;;;;18.36;55.49;100947.19;5030753;28;4190;-65
2022/01/07 07:49:47;;;;;;;;;;;;;;;18.45;54.94;100936.91;5036062;28;4300;-65
2022/01/07 07:52:14;;;;;;;;;;;;;;;18.43;55.07;100934.69;5036395;28;4223;-65
2022/01/07 07:54:40;;;;;;;;;;;;;;;18.36;54.00;100941.44;5034908;28;5846;-64
2022/01/07 07:57:07;;;;;;;;;;;;;;;18.39;54.78;100934.47;5034591;28;5287;-65
2022/01/07 07:59:33;;;;;;;;;;;;;;;18.36;55.21;100929.25;5036185;28;5160;-65
2022/01/07 08:02:01;;;;;;;;;;;;;;;18.20;55.83;100935.56;5035567;28;4096;-65
2022/01/07 08:04:28;;;;;;;;;;;;;;;18.33;55.42;100925.53;5039722;28;6187;-65
2022/01/07 08:06:55;;;;;;;;;;;;;;;18.18;56.88;100934.69;5037724;28;4212;-65
2022/01/07 08:09:21;;;;;;;;;;;;;;;18.26;55.93;100938.03;5039626;28;4177;-64
2022/01/07 08:11:53;;;;;;;;;;;;;;;18.43;55.96;100925.34;5038775;28;3990;-65
2022/01/07 08:17:06;;;;;;;;;;;;;;;18.57;57.61;100919.63;5039233;28;4215;-65
2022/01/07 08:19:32;;;;;;;;;;;;;;;18.66;56.87;100915.84;5038935;28;4208;-65
2022/01/07 08:21:59;;;;;;;;;;;;;;;18.68;56.65;100913.06;5039008;28;4093;-65
2022/01/07 08:24:25;;;;;;;;;;;;;;;18.73;55.90;100909.03;5039947;28;4093;-64
2022/01/07 08:26:52;;;;;;;;;;;;;;;18.73;54.99;100909.03;5038964;28;4117;-65
2022/01/07 08:29:19;;;;;;;;;;;;;;;18.67;56.44;100911.59;5039423;28;4159;-65
2022/01/07 08:36:58;;;;;;;;;;;;;;;18.77;55.84;100908.56;5038567;28;4154;-65
2022/01/07 08:39:25;;;;;;;;;;;;;;;18.68;55.62;100895.88;5039338;28;4214;-65
2022/01/07 08:41:51;;;;;;;;;;;;;;;18.70;56.20;100900.97;5040793;28;4154;-65
2022/01/07 08:44:19;;;;;;;;;;;;;;;18.60;56.70;100904.06;5038916;28;4218;-65
2022/01/07 08:46:46;;;;;;;;;;;;;;;18.67;56.92;100897.25;5038595;28;5393;-65
2022/01/07 08:49:12;;;;;;;;;;;;;;;18.36;57.40;100895.59;5037654;28;4217;-64
2022/01/07 08:51:40;;;;;;;;;;;;;;;18.72;56.19;100895.34;5039487;28;4159;-63
2022/01/07 08:54:06;;;;;;;;;;;;;;;18.75;55.87;100903.41;5038203;28;4106;-64
2022/01/07 08:56:34;;;;;;;;;;;;;;;18.64;55.68;100892.78;5039890;28;4418;-63
2022/01/07 08:59:00;;;;;;;;;;;;;;;18.53;57.25;100896.47;5038607;28;5298;-63
2022/01/07 09:01:28;;;;;;;;;;;;;;;18.53;56.17;100897.25;5037480;28;5666;-63
2022/01/07 09:03:55;;;;;;;;;;;;;;;18.48;56.78;100889.03;5039992;28;4165;-63
2022/01/07 09:06:21;;;;;;;;;;;;;;;18.58;56.12;100887.47;5040908;28;4228;-64
2022/01/07 09:08:47;;;;;;;;;;;;;;;18.77;55.44;100886.34;5037719;28;4179;-63
2022/01/07 09:11:14;;;;;;;;;;;;;;;18.78;54.78;100873.50;5039714;28;4259;-63
2022/01/07 09:13:40;;;;;;;;;;;;;;;18.79;55.02;100877.09;5039223;28;4063;-63
2022/01/07 09:16:06;;;;;;;;;;;;;;;18.81;55.98;100877.22;5038387;28;4373;-63
2022/01/07 09:18:33;;;;;;;;;;;;;;;18.91;54.58;100872.00;5036257;28;5286;-66
2022/01/07 09:20:59;;;;;;;;;;;;;;;18.82;55.99;100885.16;5039077;28;4093;-66
2022/01/07 09:23:27;;;;;;;;;;;;;;;18.96;53.76;100879.44;5037704;28;4201;-65
2022/01/07 09:25:53;;;;;;;;;;;;;;;18.91;53.78;100877.00;5037983;28;4010;-65
2022/01/07 09:28:20;;;;;;;;;;;;;;;18.98;54.39;100875.94;5038486;28;4046;-66
2022/01/07 09:30:46;;;;;;;;;;;;;;;18.97;53.79;100868.72;5038073;28;4386;-66
2022/01/07 09:33:12;;;;;;;;;;;;;;;18.98;54.10;100868.06;5039133;28;4962;-67
2022/01/07 09:35:39;;;;;;;;;;;;;;;19.06;54.03;100870.63;5038260;28;4054;-67
2022/01/07 09:38:05;;;;;;;;;;;;;;;18.98;53.65;100864.47;5037605;28;4237;-67
2022/01/07 09:40:31;;;;;;;;;;;;;;;19.07;53.25;100866.38;5037614;28;4194;-67
2022/01/07 09:42:58;;;;;;;;;;;;;;;19.02;52.91;100864.69;5038484;28;4149;-67
2022/01/07 09:45:25;;;;;;;;;;;;;;;18.99;53.56;100855.22;5035675;28;4263;-66
2022/01/07 09:47:52;;;;;;;;;;;;;;;18.97;54.01;100857.97;5030540;28;4129;-66
2022/01/07 09:50:19;;;;;;;;;;;;;;;19.01;53.48;100854.56;5035254;28;4037;-65
2022/01/07 09:52:45;;;;;;;;;;;;;;;19.13;54.09;100852.34;5037089;28;4149;-67
2022/01/07 09:55:11;;;;;;;;;;;;;;;19.09;54.43;100852.13;5035814;28;4175;-67
2022/01/07 09:57:38;;;;;;;;;;;;;;;19.16;54.34;100841.69;5035059;28;4374;-66
2022/01/07 10:00:05;;;;;;;;;;;;;;;19.20;54.02;100845.53;5037874;28;4204;-66
2022/01/07 10:02:37;;;;;;;;;;;;;;;19.23;54.33;100841.38;5036203;28;4091;-65
2022/01/07 10:05:13;;;;;;;;;;;;;;;19.21;54.46;100847.00;5036077;28;4330;-65
2022/01/07 10:07:39;;;;;;;;;;;;;;;19.24;54.26;100845.75;5034596;28;5257;-65
2022/01/07 10:10:06;;;;;;;;;;;;;;;19.03;55.57;100838.22;5036848;28;4113;-65
2022/01/07 10:12:51;;;;;;;;;;;;;;;19.05;55.15;100828.94;5036251;28;4210;-67
2022/01/07 10:15:21;;;;;;;;;;;;;;;18.97;55.34;100834.28;5037368;28;4123;-68
2022/01/07 10:17:54;;;;;;;;;;;;;;;19.09;54.36;100828.44;5032993;28;4237;-68
2022/01/07 10:20:25;;;;;;;;;;;;;;;19.11;55.89;100825.66;5035116;28;4261;-68
2022/01/07 10:22:53;;;;;;;;;;;;;;;19.21;55.02;100818.28;5035123;28;4926;-67
2022/01/07 10:25:21;;;;;;;;;;;;;;;19.23;55.16;100821.25;5037344;28;4099;-67
2022/01/07 10:27:47;;;;;;;;;;;;;;;19.24;54.44;100817.03;5031150;28;4584;-66
2022/01/07 10:30:14;;;;;;;;;;;;;;;19.17;54.93;100829.59;5037011;28;5596;-66
2022/01/07 10:32:41;;;;;;;;;;;;;;;19.25;54.73;100817.75;5036508;28;4156;-67
2022/01/07 10:35:12;;;;;;;;;;;;;;;19.21;54.83;100812.56;5033897;28;4217;-67
2022/01/07 10:37:46;;;;;;;;;;;;;;;19.14;54.42;100810.75;5033357;28;4031;-67
2022/01/07 10:40:31;;;;;;;;;;;;;;;19.18;54.10;100808.09;5036999;28;4063;-66
2022/01/07 10:43:16;;;;;;;;;;;;;;;19.20;53.72;100799.59;5035084;28;4086;-66
2022/01/07 10:45:44;;;;;;;;;;;;;;;19.05;54.90;100794.50;5036988;28;4506;-66
2022/01/07 10:48:10;;;;;;;;;;;;;;;19.17;53.66;100806.63;5029058;28;4232;-66
2022/01/07 10:50:38;;;;;;;;;;;;;;;19.17;53.62;100800.13;5035290;28;4203;-66
2022/01/07 10:53:16;;;;;;;;;;;;;;;19.21;53.88;100801.06;5035769;28;4269;-64
2022/01/07 10:56:01;;;;;;;;;;;;;;;19.21;54.54;100800.34;5035661;28;4134;-66
2022/01/07 10:58:27;;;;;;;;;;;;;;;19.32;54.39;100787.22;5032777;28;5253;-66
2022/01/07 11:00:54;;;;;;;;;;;;;;;19.18;54.50;100796.63;5036797;28;4153;-65
2022/01/07 11:03:20;;;;;;;;;;;;;;;19.23;53.87;100797.56;5034298;28;4082;-67
2022/01/07 11:05:46;;;;;;;;;;;;;;;19.25;54.54;100794.78;5037389;28;4245;-63
2022/01/07 11:08:14;;;;;;;;;;;;;;;19.03;54.77;100792.31;5032108;28;4244;-66
2022/01/07 11:10:40;;;;;;;;;;;;;;;19.09;54.16;100791.84;5035508;28;4134;-69
2022/01/07 11:13:07;;;;;;;;;;;;;;;19.28;53.87;100795.63;5032670;28;4008;-62
2022/01/07 11:15:35;;;;;;;;;;;;;;;19.12;54.31;100793.44;5046997;28;4081;-63
2022/01/07 11:18:01;;;;;;;;;;;;;;;19.02;54.83;100793.66;5020219;28;5349;-63
2022/01/07 11:20:27;;;;;;;;;;;;;;;19.04;55.16;100793.03;5034545;28;5443;-67
2022/01/07 11:23:06;;;;;;;;;;;;;;;19.09;55.12;100788.97;5041480;28;4251;-64
2022/01/07 11:25:32;;;;;;;;;;;;;;;19.18;54.48;100796.63;5030480;28;4135;-66
2022/01/07 11:28:00;;;;;;;;;;;;;;;19.35;54.44;100780.94;5032637;28;4184;-68
2022/01/07 11:30:28;;;;;;;;;;;;;;;19.30;54.68;100776.38;5035949;28;4546;-65
2022/01/07 11:32:55;;;;;;;;;;;;;;;19.24;54.98;100776.84;5035593;28;4083;-67
2022/01/07 11:35:23;;;;;;;;;;;;;;;19.41;54.63;100771.88;5035243;28;4039;-66
2022/01/07 11:37:53;;;;;;;;;;;;;;;19.33;55.17;100768.59;5031258;28;4189;-67
2022/01/07 11:40:41;;;;;;;;;;;;;;;19.15;55.40;100762.69;5032925;28;4126;-67
2022/01/07 11:43:13;;;;;;;;;;;;;;;19.36;54.20;100764.47;5033230;28;5494;-67
2022/01/07 11:45:40;;;;;;;;;;;;;;;19.32;53.39;100764.25;5033174;28;4811;-67
2022/01/07 11:48:10;;;;;;;;;;;;;;;19.29;54.16;100766.28;5030982;28;6052;-65
2022/01/07 11:50:46;;;;;;;;;;;;;;;19.10;54.65;100761.75;5035575;28;5629;-68
2022/01/07 11:53:13;;;;;;;;;;;;;;;19.62;54.98;100762.13;5034496;28;4206;-68
2022/01/07 11:55:39;;;;;;;;;;;;;;;20.37;52.59;100750.50;5028716;28;5814;-73
2022/01/07 11:58:07;;;;;;;;;;;;;;;20.59;51.40;100767.28;5025433;28;3990;-68
2022/01/07 12:00:49;;;;;;;;;;;;;;;20.64;51.13;100757.47;5033612;28;5483;-68
2022/01/07 12:03:34;;;;;;;;;;;;;;;20.67;51.07;100754.00;5036773;28;4236;-70
2022/01/07 12:06:21;;;;;;;;;;;;;;;20.78;50.64;100758.06;5036559;28;6057;-68
2022/01/07 12:08:56;;;;;;;;;;;;;;;20.77;50.96;100756.56;5032026;28;4207;-69
2022/01/07 12:11:22;;;;;;;;;;;;;;;20.74;50.94;100752.13;5035311;28;4259;-68
2022/01/07 12:13:49;;;;;;;;;;;;;;;20.79;50.68;100747.28;5035896;28;4290;-68
2022/01/07 12:16:19;;;;;;;;;;;;;;;20.78;50.41;100746.56;5035899;28;4141;-68
2022/01/07 12:18:45;;;;;;;;;;;;;;;20.77;49.98;100750.81;5032435;28;4876;-69
2022/01/07 12:21:12;;;;;;;;;;;;;;;20.75;50.54;100744.22;5035017;28;4047;-66
2022/01/07 12:23:39;;;;;;;;;;;;;;;20.80;50.65;100743.78;5035037;28;4100;-67
2022/01/07 12:26:06;;;;;;;;;;;;;;;20.71;50.94;100727.56;5016382;28;4092;-68
2022/01/07 12:28:36;;;;;;;;;;;;;;;20.76;50.98;100737.84;5032507;28;4312;-71
2022/01/07 12:31:09;;;;;;;;;;;;;;;20.85;50.36;100728.16;5016425;28;4395;-68
2022/01/07 12:33:38;;;;;;;;;;;;;;;20.81;50.48;100733.72;5034919;28;4316;-71
2022/01/07 12:36:04;;;;;;;;;;;;;;;20.78;50.46;100729.28;5034781;28;4201;-69
2022/01/07 12:38:31;;;;;;;;;;;;;;;20.78;50.54;100717.78;5031434;28;4213;-68
2022/01/07 12:40:58;;;;;;;;;;;;;;;20.75;50.17;100721.22;5032660;28;4288;-67
2022/01/07 12:43:28;;;;;;;;;;;;;;;20.77;50.79;100719.16;5016599;28;4586;-76
2022/01/07 12:45:56;;;;;;;;;;;;;;;20.74;50.07;100717.59;5037320;28;5479;-68
2022/01/07 12:48:39;;;;;;;;;;;;;;;20.69;50.23;100715.94;5033932;28;5636;-71
2022/01/07 12:51:05;;;;;;;;;;;;;;;20.68;50.29;100705.81;5041106;28;5446;-69
2022/01/07 12:53:32;;;;;;;;;;;;;;;20.71;50.66;100701.66;5037753;28;4672;-70
2022/01/07 12:56:17;;;;;;;;;;;;;;;20.62;50.26;100700.56;5022715;28;4908;-67
2022/01/07 12:58:43;;;;;;;;;;;;;;;20.57;49.69;100698.16;5035327;28;4390;-67